Terminal Aerodrome Forecast
Issued by NWS

Home | Current Version | Previous Version | Text Only | Print | Product List | Glossary On
Versions: 1 2 3 4 5 6 7 8 9 10 11 12 13 14 15 16 17 18 19 20 21 22 23 24 25 26 27 28 29 30 31 32
000
FTUS41 KALY 030400 AAD
TAFPSF
TAF AMD
KPSF 030446Z 0305/0324 13003KT P6SM -RA BKN009 OVC060
     FM030600 26007KT 3SM BR VCSH SCT002 BKN015
     FM031230 29009G19KT P6SM SCT040 SCT100=

USA.gov is the U.S. government's official web portal to all federal, state and local government web resources and services.